createdAt,value
2023-07-03T00:00:44.360Z,37.17
2023-07-03T00:01:44.415Z,37.17
2023-07-03T00:02:44.467Z,37.17
2023-07-03T00:03:44.452Z,37.13
2023-07-03T00:04:44.581Z,37.16
2023-07-03T00:05:44.499Z,37.16
2023-07-03T00:06:44.474Z,37.15
2023-07-03T00:07:44.509Z,37.17
2023-07-03T00:08:44.515Z,37.09
2023-07-03T00:09:44.566Z,37.17
2023-07-03T00:10:44.594Z,37.16
2023-07-03T00:11:44.615Z,37.12
2023-07-03T00:12:44.647Z,37.14
2023-07-03T00:13:44.723Z,37.16
2023-07-03T00:14:44.704Z,37.11
2023-07-03T00:15:44.677Z,37.14
2023-07-03T00:16:44.772Z,37.16
2023-07-03T00:17:44.826Z,37.14
2023-07-03T00:18:44.774Z,37.12
2023-07-03T00:19:44.804Z,37.12
2023-07-03T00:20:44.809Z,37.05
2023-07-03T00:21:45.071Z,37.13
2023-07-03T00:22:44.886Z,37.16
2023-07-03T00:23:44.897Z,37.12
2023-07-03T00:24:44.911Z,37.13
2023-07-03T00:25:44.949Z,37.13
2023-07-03T00:26:44.993Z,37.13
2023-07-03T00:27:45.023Z,37.17
2023-07-03T00:28:45.031Z,37.12
2023-07-03T00:29:45.087Z,37.12
2023-07-03T00:30:45.081Z,37.12
2023-07-03T00:31:45.172Z,37.13
2023-07-03T00:32:45.209Z,37.13
2023-07-03T00:33:45.199Z,37.14
2023-07-03T00:34:45.254Z,37.12
2023-07-03T00:35:45.287Z,37.09
2023-07-03T00:36:45.269Z,37.12
2023-07-03T00:37:45.291Z,37.11
2023-07-03T00:38:45.351Z,37.10
2023-07-03T00:39:45.367Z,37.10
2023-07-03T00:40:45.398Z,37.13
2023-07-03T00:41:45.426Z,37.10
2023-07-03T00:42:45.465Z,37.10
2023-07-03T00:43:45.483Z,37.12
2023-07-03T00:44:45.510Z,37.09
2023-07-03T00:45:45.562Z,37.10
2023-07-03T00:46:45.665Z,37.10
2023-07-03T00:47:45.629Z,37.12
2023-07-03T00:48:45.626Z,37.07
2023-07-03T00:49:45.653Z,37.06
2023-07-03T00:50:45.652Z,37.06
2023-07-03T00:51:45.722Z,37.08
2023-07-03T00:52:45.701Z,37.10
2023-07-03T00:53:45.707Z,37.10
2023-07-03T00:54:45.726Z,37.03
2023-07-03T00:55:45.774Z,37.09
2023-07-03T00:56:45.788Z,37.07
2023-07-03T00:57:45.795Z,37.07
2023-07-03T00:58:45.786Z,37.05
2023-07-03T00:59:45.820Z,37.06
2023-07-03T01:00:45.861Z,37.05
2023-07-03T01:01:45.956Z,37.05
2023-07-03T01:02:45.905Z,37.05
2023-07-03T01:03:45.932Z,37.02
2023-07-03T01:04:45.982Z,37.05
2023-07-03T01:05:46.025Z,37.02
2023-07-03T01:06:46.026Z,36.98
2023-07-03T01:07:46.033Z,37.03
2023-07-03T01:08:46.067Z,37.01
2023-07-03T01:09:46.082Z,37.02
2023-07-03T01:10:46.137Z,37.05
2023-07-03T01:11:46.143Z,37.06
2023-07-03T01:12:46.190Z,37.03
2023-07-03T01:13:46.202Z,37.02
2023-07-03T01:14:46.280Z,37.03
2023-07-03T01:15:46.300Z,37.01
2023-07-03T01:16:46.292Z,37.00
2023-07-03T01:17:46.372Z,37.00
2023-07-03T01:18:46.365Z,36.96
2023-07-03T01:19:46.402Z,36.97
2023-07-03T01:20:46.418Z,37.00
2023-07-03T01:21:46.468Z,37.02
2023-07-03T01:22:46.483Z,37.00
2023-07-03T01:23:46.531Z,36.97
2023-07-03T01:24:46.595Z,36.99
2023-07-03T01:25:46.599Z,36.98
2023-07-03T01:26:46.671Z,37.00
2023-07-03T01:27:46.721Z,36.97
2023-07-03T01:28:46.734Z,36.98
2023-07-03T01:29:46.739Z,36.96
2023-07-03T01:30:46.764Z,37.01
2023-07-03T01:31:46.857Z,36.99
2023-07-03T01:32:46.870Z,37.02
2023-07-03T01:33:46.867Z,36.99
2023-07-03T01:34:46.994Z,37.00
2023-07-03T01:35:46.930Z,36.99
2023-07-03T01:36:46.993Z,36.99
2023-07-03T01:37:46.988Z,37.00
2023-07-03T01:38:47.061Z,37.01
2023-07-03T01:39:47.048Z,37.02
2023-07-03T01:40:47.116Z,36.98
2023-07-03T01:41:47.125Z,36.98
2023-07-03T01:42:47.183Z,36.94
2023-07-03T01:43:47.212Z,36.95
2023-07-03T01:44:47.246Z,36.98
2023-07-03T01:45:47.351Z,36.96
2023-07-03T01:46:47.329Z,37.02
2023-07-03T01:47:47.470Z,36.95
2023-07-03T01:48:47.435Z,37.00
2023-07-03T01:49:47.435Z,36.95
2023-07-03T01:50:47.453Z,36.97
2023-07-03T01:51:47.558Z,36.99
2023-07-03T01:52:47.542Z,36.99
2023-07-03T01:53:47.591Z,36.99
2023-07-03T01:54:47.636Z,36.94
2023-07-03T01:55:47.777Z,36.97
2023-07-03T01:56:47.709Z,36.97
2023-07-03T01:57:47.762Z,36.97
2023-07-03T01:58:47.807Z,36.99
2023-07-03T01:59:47.873Z,36.96
2023-07-03T02:00:47.934Z,36.97
2023-07-03T02:01:48.015Z,36.99
2023-07-03T02:02:48.180Z,36.94
2023-07-03T02:03:48.004Z,36.99
2023-07-03T02:04:48.092Z,36.93
2023-07-03T02:05:48.419Z,36.99
2023-07-03T02:06:48.124Z,36.94
2023-07-03T02:07:48.191Z,36.97
2023-07-03T02:08:48.215Z,36.97
2023-07-03T02:09:48.258Z,36.96
2023-07-03T02:10:48.307Z,36.96
2023-07-03T02:11:48.356Z,36.96
2023-07-03T02:12:48.385Z,36.96
2023-07-03T02:13:48.437Z,36.92
2023-07-03T02:14:48.460Z,36.95
2023-07-03T02:15:48.580Z,36.96
2023-07-03T02:16:48.689Z,36.96
2023-07-03T02:17:48.614Z,36.96
2023-07-03T02:18:48.619Z,36.97
2023-07-03T02:19:48.676Z,36.95
2023-07-03T02:20:48.731Z,36.99
2023-07-03T02:21:48.773Z,36.98
2023-07-03T02:22:48.790Z,37.00
2023-07-03T02:23:48.883Z,36.95
2023-07-03T02:24:48.866Z,36.95
2023-07-03T02:25:49.130Z,36.96
2023-07-03T02:26:49.292Z,37.00
2023-07-03T02:27:48.980Z,36.93
2023-07-03T02:28:49.029Z,36.96
2023-07-03T02:29:49.087Z,36.97
2023-07-03T02:30:49.121Z,36.95
2023-07-03T02:31:49.344Z,36.92
2023-07-03T02:32:49.241Z,36.94
2023-07-03T02:33:49.208Z,36.96
2023-07-03T02:34:49.251Z,36.96
2023-07-03T02:35:49.796Z,36.91
2023-07-03T02:36:49.355Z,36.93
2023-07-03T02:37:49.407Z,36.96
2023-07-03T02:38:49.431Z,36.92
2023-07-03T02:39:49.525Z,36.93
2023-07-03T02:40:49.548Z,36.91
2023-07-03T02:41:49.570Z,36.95
2023-07-03T02:42:49.670Z,36.87
2023-07-03T02:43:49.682Z,36.94
2023-07-03T02:44:49.722Z,36.93
2023-07-03T02:45:50.021Z,36.91
2023-07-03T02:46:49.864Z,36.94
2023-07-03T02:47:49.908Z,36.93
2023-07-03T02:48:49.912Z,36.92
2023-07-03T02:49:50.012Z,36.94
2023-07-03T02:50:49.997Z,36.92
2023-07-03T02:51:50.091Z,36.92
2023-07-03T02:52:50.133Z,36.92
2023-07-03T02:53:50.178Z,36.89
2023-07-03T02:54:50.202Z,36.89
2023-07-03T02:55:50.634Z,36.89
2023-07-03T02:56:50.327Z,36.89
2023-07-03T02:57:50.336Z,36.89
2023-07-03T02:58:50.416Z,36.88
2023-07-03T02:59:50.430Z,36.89
2023-07-03T03:00:50.512Z,36.88
2023-07-03T03:01:50.538Z,36.87
2023-07-03T03:02:50.672Z,36.88
2023-07-03T03:03:50.653Z,36.84
2023-07-03T03:04:50.703Z,36.85
2023-07-03T03:05:50.968Z,36.86
2023-07-03T03:06:50.758Z,36.82
2023-07-03T03:07:50.806Z,36.84
2023-07-03T03:08:50.882Z,36.82
2023-07-03T03:09:50.884Z,36.81
2023-07-03T03:10:50.923Z,36.81
2023-07-03T03:11:51.002Z,36.79
2023-07-03T03:12:51.001Z,36.78
2023-07-03T03:13:51.064Z,36.81
2023-07-03T03:14:51.085Z,36.84
2023-07-03T03:15:51.408Z,36.77
2023-07-03T03:16:51.211Z,36.79
2023-07-03T03:17:51.227Z,36.77
2023-07-03T03:18:51.236Z,36.77
2023-07-03T03:19:51.294Z,36.76
2023-07-03T03:20:51.368Z,36.76
2023-07-03T03:21:51.367Z,36.79
2023-07-03T03:22:51.476Z,36.77
2023-07-03T03:23:51.502Z,36.69
2023-07-03T03:24:51.533Z,36.75
2023-07-03T03:25:51.826Z,36.72
2023-07-03T03:26:51.672Z,36.72
2023-07-03T03:27:51.689Z,36.71
2023-07-03T03:28:51.750Z,36.70
2023-07-03T03:29:51.921Z,36.67
2023-07-03T03:30:51.911Z,36.64
2023-07-03T03:31:51.903Z,36.69
2023-07-03T03:32:51.962Z,36.68
2023-07-03T03:33:52.000Z,36.63
2023-07-03T03:34:52.089Z,36.65
2023-07-03T03:35:52.460Z,36.63
2023-07-03T03:36:52.157Z,36.63
2023-07-03T03:37:52.190Z,36.61
2023-07-03T03:38:52.232Z,36.61
2023-07-03T03:39:52.300Z,36.61
2023-07-03T03:40:52.413Z,36.59
2023-07-03T03:41:52.439Z,36.60
2023-07-03T03:42:52.489Z,36.63
2023-07-03T03:43:52.559Z,36.63
2023-07-03T03:44:52.639Z,36.61
2023-07-03T03:45:52.789Z,36.61
2023-07-03T03:46:52.697Z,36.58
2023-07-03T03:47:52.911Z,36.59
2023-07-03T03:48:52.899Z,36.56
2023-07-03T03:49:52.881Z,36.61
2023-07-03T03:50:52.931Z,36.58
2023-07-03T03:51:53.005Z,36.59
2023-07-03T03:52:53.048Z,36.59
2023-07-03T03:53:53.040Z,36.57
2023-07-03T03:54:53.112Z,36.59
2023-07-03T03:55:53.392Z,36.55
2023-07-03T03:56:53.230Z,36.58
2023-07-03T03:57:53.278Z,36.54
2023-07-03T03:58:53.327Z,36.56
2023-07-03T03:59:53.368Z,36.59
2023-07-03T04:00:53.491Z,36.55
2023-07-03T04:01:53.613Z,36.59
2023-07-03T04:02:53.621Z,36.55
2023-07-03T04:03:53.663Z,36.56
2023-07-03T04:04:53.710Z,36.55
2023-07-03T04:05:54.097Z,36.56
2023-07-03T04:06:53.783Z,36.52
2023-07-03T04:07:53.797Z,36.51
2023-07-03T04:08:53.881Z,36.56
2023-07-03T04:09:53.887Z,36.55
2023-07-03T04:10:53.933Z,36.51
2023-07-03T04:11:53.988Z,36.52
2023-07-03T04:12:54.058Z,36.51
2023-07-03T04:13:54.130Z,36.52
2023-07-03T04:14:54.128Z,36.48
2023-07-03T04:15:55.083Z,36.51
2023-07-03T04:16:54.481Z,36.52
2023-07-03T04:17:54.305Z,36.53
2023-07-03T04:18:54.336Z,36.48
2023-07-03T04:19:54.376Z,36.47
2023-07-03T04:20:54.460Z,36.46
2023-07-03T04:21:54.863Z,36.47
2023-07-03T04:22:54.488Z,36.47
2023-07-03T04:23:54.573Z,36.43
2023-07-03T04:24:54.665Z,36.48
2023-07-03T04:25:54.708Z,36.43
2023-07-03T04:26:54.761Z,36.46
2023-07-03T04:27:54.772Z,36.46
2023-07-03T04:28:54.816Z,36.39
2023-07-03T04:29:54.877Z,36.39
2023-07-03T04:30:54.935Z,36.40
2023-07-03T04:31:55.035Z,36.42
2023-07-03T04:32:55.154Z,36.39
2023-07-03T04:33:55.078Z,36.39
2023-07-03T04:34:55.153Z,36.37
2023-07-03T04:35:55.234Z,36.41
2023-07-03T04:36:55.256Z,36.39
2023-07-03T04:37:55.316Z,36.37
2023-07-03T04:38:55.370Z,36.35
2023-07-03T04:39:55.398Z,36.43
2023-07-03T04:40:55.465Z,36.41
2023-07-03T04:41:55.484Z,36.39
2023-07-03T04:42:55.527Z,36.38
2023-07-03T04:43:55.600Z,36.42
2023-07-03T04:44:55.647Z,36.87
2023-07-03T04:45:56.040Z,37.94
2023-07-03T04:46:55.777Z,36.70
2023-07-03T04:47:55.804Z,36.71
2023-07-03T04:48:55.886Z,36.94
2023-07-03T04:49:55.898Z,37.18
2023-07-03T04:50:56.020Z,37.17
2023-07-03T04:51:56.372Z,37.30
2023-07-03T04:52:59.010Z,37.28
2023-07-03T04:53:56.068Z,37.12
2023-07-03T04:54:56.052Z,37.19
2023-07-03T04:55:56.074Z,37.28
2023-07-03T04:56:56.049Z,37.29
2023-07-03T04:57:56.053Z,37.33
2023-07-03T04:58:56.036Z,37.26
2023-07-03T04:59:56.040Z,39.11
2023-07-03T05:00:56.071Z,41.41
2023-07-03T05:01:56.104Z,40.84
2023-07-03T05:02:56.031Z,40.52
2023-07-03T05:03:56.067Z,40.31
2023-07-03T05:04:56.038Z,40.41
2023-07-03T05:05:56.009Z,41.80
2023-07-03T05:06:55.978Z,41.72
2023-07-03T05:07:58.776Z,41.70
2023-07-03T05:08:55.946Z,41.23
2023-07-03T05:09:55.935Z,41.03
2023-07-03T05:10:55.943Z,41.03
2023-07-03T05:11:56.419Z,40.70
2023-07-03T05:12:55.946Z,40.49
2023-07-03T05:13:55.938Z,40.50
2023-07-03T05:14:55.929Z,40.50
2023-07-03T05:15:55.939Z,40.39
2023-07-03T05:16:56.401Z,40.27
2023-07-03T05:17:56.004Z,40.27
2023-07-03T05:18:55.922Z,40.09
2023-07-03T05:19:55.872Z,40.06
2023-07-03T05:20:55.941Z,39.97
2023-07-03T05:21:56.393Z,39.84
2023-07-03T05:22:55.887Z,39.76
2023-07-03T05:23:55.852Z,39.70
2023-07-03T05:24:55.858Z,39.64
2023-07-03T05:25:55.903Z,39.46
2023-07-03T05:26:55.925Z,39.45
2023-07-03T05:27:55.838Z,39.38
2023-07-03T05:28:55.821Z,39.27
2023-07-03T05:29:55.837Z,39.27
2023-07-03T05:30:55.862Z,39.21
2023-07-03T05:31:55.854Z,39.06
2023-07-03T05:32:55.896Z,38.97
2023-07-03T05:33:55.800Z,38.95
2023-07-03T05:34:55.815Z,38.89
2023-07-03T05:35:55.957Z,38.83
2023-07-03T05:36:55.778Z,38.83
2023-07-03T05:37:55.798Z,38.78
2023-07-03T05:38:55.731Z,38.69
2023-07-03T05:39:55.736Z,38.69
2023-07-03T05:40:55.740Z,38.51
2023-07-03T05:41:55.766Z,38.56
2023-07-03T05:42:55.734Z,38.50
2023-07-03T05:43:55.732Z,38.43
2023-07-03T05:44:55.736Z,38.44
2023-07-03T05:45:55.728Z,38.40
2023-07-03T05:46:55.795Z,38.38
2023-07-03T05:47:55.726Z,38.35
2023-07-03T05:48:55.680Z,38.30
2023-07-03T05:49:55.779Z,38.30
2023-07-03T05:50:55.775Z,38.27
2023-07-03T05:51:55.906Z,38.21
2023-07-03T05:52:55.880Z,38.34
2023-07-03T05:53:55.981Z,38.33
2023-07-03T05:54:56.007Z,38.37
2023-07-03T05:55:56.063Z,38.48
2023-07-03T05:56:56.175Z,38.44
2023-07-03T05:57:56.165Z,38.45
2023-07-03T05:58:56.286Z,38.45
2023-07-03T05:59:56.329Z,38.44
2023-07-03T06:00:56.400Z,38.42
2023-07-03T06:01:56.472Z,38.43
2023-07-03T06:02:56.490Z,38.39
2023-07-03T06:03:56.542Z,38.35
2023-07-03T06:04:56.645Z,38.35
2023-07-03T06:05:56.595Z,38.37
2023-07-03T06:06:56.692Z,38.31
2023-07-03T06:07:56.718Z,38.29
2023-07-03T06:08:56.775Z,38.27
2023-07-03T06:09:56.820Z,38.27
2023-07-03T06:10:56.856Z,38.24
2023-07-03T06:11:56.954Z,38.21
2023-07-03T06:12:56.981Z,38.14
2023-07-03T06:13:57.050Z,38.11
2023-07-03T06:14:57.154Z,38.12
2023-07-03T06:15:57.165Z,38.06
2023-07-03T06:16:57.219Z,38.03
2023-07-03T06:17:57.287Z,38.02
2023-07-03T06:18:57.290Z,37.98
2023-07-03T06:19:57.367Z,37.98
2023-07-03T06:20:57.428Z,37.98
2023-07-03T06:21:57.518Z,37.94
2023-07-03T06:22:57.558Z,37.94
2023-07-03T06:23:57.626Z,37.94
2023-07-03T06:24:57.631Z,37.92
2023-07-03T06:25:57.730Z,37.89
2023-07-03T06:26:57.706Z,37.86
2023-07-03T06:27:57.781Z,37.88
2023-07-03T06:28:57.818Z,37.83
2023-07-03T06:29:57.858Z,37.74
2023-07-03T06:30:57.969Z,37.71
2023-07-03T06:31:58.011Z,37.69
2023-07-03T06:32:58.091Z,37.77
2023-07-03T06:33:58.093Z,37.69
2023-07-03T06:34:58.144Z,37.73
2023-07-03T06:35:58.135Z,37.70
2023-07-03T06:36:58.434Z,37.70
2023-07-03T06:37:58.213Z,37.70
2023-07-03T06:38:58.270Z,37.67
2023-07-03T06:39:58.333Z,37.67
2023-07-03T06:40:58.378Z,37.59
2023-07-03T06:41:58.893Z,37.49
2023-07-03T06:42:58.582Z,37.36
2023-07-03T06:43:58.509Z,37.30
2023-07-03T06:44:58.530Z,37.25
2023-07-03T06:45:58.961Z,37.20
2023-07-03T06:46:58.601Z,37.16
2023-07-03T06:47:58.638Z,37.07
2023-07-03T06:48:58.569Z,37.06
2023-07-03T06:49:58.655Z,37.86
2023-07-03T06:50:58.680Z,39.55
2023-07-03T06:51:58.657Z,39.05
2023-07-03T06:52:58.698Z,39.58
2023-07-03T06:53:58.717Z,40.33
2023-07-03T06:54:58.793Z,40.32
2023-07-03T06:55:59.466Z,41.02
2023-07-03T06:56:58.752Z,41.65
2023-07-03T06:57:58.770Z,41.30
2023-07-03T06:58:58.891Z,41.59
2023-07-03T06:59:58.813Z,42.11
2023-07-03T07:00:58.892Z,42.47
2023-07-03T07:01:58.987Z,41.52
2023-07-03T07:02:58.975Z,41.66
2023-07-03T07:03:59.073Z,41.96
2023-07-03T07:05:01.653Z,41.72
2023-07-03T07:05:59.503Z,41.95
2023-07-03T07:06:59.077Z,42.10
2023-07-03T07:07:59.056Z,42.21
2023-07-03T07:08:59.066Z,41.68
2023-07-03T07:09:59.025Z,41.94
2023-07-03T07:10:59.039Z,42.02
2023-07-03T07:11:59.039Z,41.92
2023-07-03T07:12:59.019Z,42.03
2023-07-03T07:13:59.035Z,42.32
2023-07-03T07:15:00.132Z,42.24
2023-07-03T07:15:59.000Z,41.85
2023-07-03T07:16:59.123Z,41.95
2023-07-03T07:17:59.000Z,42.02
2023-07-03T07:18:58.966Z,40.91
2023-07-03T07:19:59.133Z,41.49
2023-07-03T07:20:58.968Z,41.73
2023-07-03T07:21:58.979Z,41.06
2023-07-03T07:22:58.950Z,41.29
2023-07-03T07:23:58.960Z,41.38
2023-07-03T07:24:58.930Z,41.53
2023-07-03T07:25:58.961Z,41.47
2023-07-03T07:26:58.926Z,41.36
2023-07-03T07:27:58.915Z,41.11
2023-07-03T07:28:58.895Z,41.63
2023-07-03T07:29:58.905Z,41.81
2023-07-03T07:30:59.050Z,41.81
2023-07-03T07:31:58.963Z,41.91
2023-07-03T07:32:59.058Z,41.65
2023-07-03T07:33:59.082Z,41.64
2023-07-03T07:34:59.126Z,41.38
2023-07-03T07:35:59.132Z,42.04
2023-07-03T07:36:59.258Z,41.72
2023-07-03T07:37:59.307Z,41.55
2023-07-03T07:38:59.326Z,41.61
2023-07-03T07:39:59.418Z,41.57
2023-07-03T07:40:59.470Z,39.41
2023-07-03T07:41:59.543Z,40.38
2023-07-03T07:42:59.549Z,40.42
2023-07-03T07:43:59.604Z,40.34
2023-07-03T07:44:59.656Z,40.71
2023-07-03T07:45:59.742Z,40.89
2023-07-03T07:46:59.881Z,41.09
2023-07-03T07:47:59.891Z,40.09
2023-07-03T07:48:59.905Z,40.07
2023-07-03T07:49:59.947Z,40.05
2023-07-03T07:50:59.986Z,38.97
2023-07-03T07:52:00.417Z,39.57
2023-07-03T07:53:00.088Z,39.68
2023-07-03T07:54:00.157Z,39.66
2023-07-03T07:55:00.262Z,39.70
2023-07-03T07:56:00.256Z,39.76
2023-07-03T07:57:00.941Z,39.70
2023-07-03T07:58:00.359Z,41.28
2023-07-03T07:59:00.480Z,40.04
2023-07-03T08:00:00.497Z,40.43
2023-07-03T08:01:00.555Z,40.46
2023-07-03T08:02:00.616Z,40.72
2023-07-03T08:03:00.770Z,40.36
2023-07-03T08:04:00.691Z,40.27
2023-07-03T08:05:00.914Z,41.28
2023-07-03T08:06:00.791Z,40.89
2023-07-03T08:07:00.848Z,40.91
2023-07-03T08:08:00.886Z,40.80
2023-07-03T08:09:01.014Z,40.77
2023-07-03T08:10:01.069Z,40.84
2023-07-03T08:11:01.052Z,41.01
2023-07-03T08:12:01.140Z,41.01
2023-07-03T08:13:01.101Z,41.48
2023-07-03T08:14:01.080Z,41.54
2023-07-03T08:15:01.090Z,41.81
2023-07-03T08:16:01.189Z,41.96
2023-07-03T08:17:01.209Z,41.62
2023-07-03T08:18:01.327Z,41.56
2023-07-03T08:19:01.284Z,42.62
2023-07-03T08:20:01.290Z,43.00
2023-07-03T08:21:01.294Z,42.76
2023-07-03T08:22:01.335Z,42.20
2023-07-03T08:23:01.300Z,42.04
2023-07-03T08:24:01.378Z,42.07
2023-07-03T08:25:01.367Z,41.90
2023-07-03T08:26:01.419Z,41.72
2023-07-03T08:27:01.410Z,41.95
2023-07-03T08:28:01.395Z,41.88
2023-07-03T08:29:01.490Z,41.69
2023-07-03T08:30:01.428Z,41.76
2023-07-03T08:31:01.436Z,41.71
2023-07-03T08:32:01.564Z,41.55
2023-07-03T08:33:01.538Z,41.37
2023-07-03T08:34:01.554Z,41.52
2023-07-03T08:38:01.465Z,41.76
2023-07-03T08:39:01.469Z,38.62
2023-07-03T08:40:01.422Z,38.69
2023-07-03T08:41:01.460Z,38.92
2023-07-03T08:42:01.451Z,37.06
2023-07-03T08:43:01.439Z,36.21
2023-07-03T08:44:01.427Z,36.25
2023-07-03T08:45:01.403Z,36.21
2023-07-03T08:46:01.448Z,36.30
2023-07-03T08:47:10.711Z,35.64
2023-07-03T08:48:02.409Z,36.31
2023-07-03T08:49:01.400Z,35.22
2023-07-03T08:50:01.514Z,35.17
2023-07-03T08:51:01.467Z,35.06
2023-07-03T08:52:01.371Z,34.97
2023-07-03T08:53:01.358Z,35.13
2023-07-03T08:54:01.358Z,35.39
2023-07-03T08:55:01.428Z,36.17
2023-07-03T08:56:01.321Z,37.04
2023-07-03T08:57:01.453Z,37.54
2023-07-03T08:58:01.293Z,38.83
2023-07-03T08:59:01.293Z,38.69
2023-07-03T09:00:01.277Z,38.93
2023-07-03T09:01:01.333Z,38.63
2023-07-03T09:02:01.326Z,37.46
2023-07-03T09:03:01.391Z,37.33
2023-07-03T09:04:01.388Z,36.44
2023-07-03T09:05:01.424Z,36.69
2023-07-03T09:06:01.543Z,35.72
2023-07-03T09:07:01.546Z,35.87
2023-07-03T09:08:01.518Z,36.58
2023-07-03T09:09:01.509Z,36.52
2023-07-03T09:10:01.655Z,35.92
2023-07-03T09:11:01.617Z,34.64
2023-07-03T09:12:01.602Z,35.48
2023-07-03T09:13:01.617Z,34.57
2023-07-03T09:14:01.672Z,34.60
2023-07-03T09:15:03.155Z,34.11
2023-07-03T09:16:01.700Z,33.82
2023-07-03T09:17:01.769Z,33.63
2023-07-03T09:18:02.520Z,33.57
2023-07-03T09:19:01.802Z,33.96
2023-07-03T09:20:01.665Z,34.41
2023-07-03T09:21:01.769Z,35.32
2023-07-03T09:22:01.710Z,34.73
2023-07-03T09:23:01.821Z,36.65
2023-07-03T09:24:01.724Z,35.87
2023-07-03T09:25:01.654Z,36.53
2023-07-03T09:26:04.946Z,37.52
2023-07-03T09:27:01.737Z,38.26
2023-07-03T09:28:01.600Z,36.59
2023-07-03T09:29:01.617Z,35.64
2023-07-03T09:30:01.598Z,35.82
2023-07-03T09:31:03.641Z,33.54
2023-07-03T09:32:48.273Z,34.24
2023-07-03T09:33:48.333Z,33.47
2023-07-03T09:34:48.381Z,33.26
2023-07-03T09:35:48.354Z,33.73
2023-07-03T09:36:48.396Z,33.54
2023-07-03T09:37:48.414Z,32.57
2023-07-03T09:38:49.469Z,33.61
2023-07-03T09:39:48.407Z,33.94
2023-07-03T09:40:48.372Z,34.11
2023-07-03T09:41:48.404Z,33.74
2023-07-03T09:42:49.998Z,33.86
2023-07-03T09:43:48.554Z,34.03
2023-07-03T09:44:48.351Z,34.16
2023-07-03T09:45:48.608Z,34.15
2023-07-03T09:46:48.447Z,34.40
2023-07-03T09:47:48.395Z,33.91
2023-07-03T09:48:48.322Z,34.68
2023-07-03T09:49:48.364Z,33.90
2023-07-03T09:51:05.488Z,34.27
2023-07-03T09:51:49.360Z,35.38
2023-07-03T09:52:59.382Z,33.84
2023-07-03T09:53:49.306Z,34.01
2023-07-03T09:54:48.668Z,34.57
2023-07-03T09:55:48.368Z,34.26
2023-07-03T09:56:48.301Z,33.49
2023-07-03T09:57:48.239Z,33.98
2023-07-03T09:58:48.256Z,34.42
2023-07-03T09:59:48.257Z,34.53
2023-07-03T10:00:49.197Z,34.53
2023-07-03T10:03:48.327Z,35.15
2023-07-03T10:06:48.258Z,34.83
2023-07-03T10:07:48.283Z,34.56
2023-07-03T10:08:48.533Z,34.43
2023-07-03T10:11:48.249Z,35.15
2023-07-03T10:12:48.179Z,34.95
2023-07-03T10:13:48.212Z,34.95
2023-07-03T10:14:48.127Z,34.96
2023-07-03T10:15:48.313Z,35.36
2023-07-03T10:16:48.211Z,34.68
2023-07-03T10:17:48.206Z,34.63
2023-07-03T10:18:48.120Z,34.14
2023-07-03T10:19:48.123Z,34.29
2023-07-03T10:20:48.113Z,34.44
2023-07-03T10:21:48.118Z,34.59
2023-07-03T10:22:48.098Z,34.89
2023-07-03T10:23:48.122Z,34.60
2023-07-03T10:24:48.874Z,34.80
2023-07-03T10:25:48.138Z,34.82
2023-07-03T10:26:48.319Z,36.22
2023-07-03T10:27:48.056Z,36.17
2023-07-03T10:28:48.076Z,35.98
2023-07-03T10:29:48.084Z,35.90
2023-07-03T10:30:48.076Z,36.00
2023-07-03T10:31:48.059Z,36.05
2023-07-03T10:32:48.060Z,36.12
2023-07-03T10:33:48.009Z,36.09
2023-07-03T10:34:48.020Z,36.20
2023-07-03T10:35:48.085Z,36.19
2023-07-03T10:36:48.005Z,36.29
2023-07-03T10:37:47.972Z,36.37
2023-07-03T10:38:47.991Z,36.24
2023-07-03T10:39:47.998Z,36.53
2023-07-03T10:40:48.038Z,36.04
2023-07-03T10:41:48.004Z,36.67
2023-07-03T10:42:48.070Z,36.14
2023-07-03T10:43:47.954Z,35.86
2023-07-03T10:44:47.983Z,35.61
2023-07-03T10:45:48.053Z,35.23
2023-07-03T10:46:48.077Z,34.86
2023-07-03T10:47:47.996Z,34.70
2023-07-03T10:48:47.908Z,34.69
2023-07-03T10:49:47.904Z,34.82
2023-07-03T10:50:48.000Z,34.85
2023-07-03T10:51:47.985Z,34.74
2023-07-03T10:52:47.894Z,34.61
2023-07-03T10:53:47.896Z,34.43
2023-07-03T10:54:47.916Z,34.39
2023-07-03T10:55:47.933Z,34.35
2023-07-03T10:56:47.890Z,34.28
2023-07-03T10:57:47.850Z,34.20
2023-07-03T10:58:47.999Z,34.03
2023-07-03T10:59:47.874Z,33.75
2023-07-03T11:00:47.859Z,33.87
2023-07-03T11:01:47.898Z,33.82
2023-07-03T11:02:47.883Z,33.70
2023-07-03T11:03:53.057Z,33.47
2023-07-03T11:04:48.895Z,33.46
2023-07-03T11:05:47.814Z,33.32
2023-07-03T11:06:47.834Z,33.12
2023-07-03T11:07:47.803Z,33.18
2023-07-03T11:08:47.804Z,33.11
2023-07-03T11:09:47.821Z,33.02
2023-07-03T11:10:47.822Z,33.02
2023-07-03T11:11:47.777Z,32.94
2023-07-03T11:12:47.785Z,32.93
2023-07-03T11:13:47.800Z,32.97
2023-07-03T11:14:47.892Z,32.88
2023-07-03T11:15:47.928Z,32.91
2023-07-03T11:16:48.062Z,32.83
2023-07-03T11:22:47.831Z,32.72
2023-07-03T11:23:47.868Z,32.73
2023-07-03T11:24:47.864Z,32.68
2023-07-03T11:28:47.846Z,32.65
2023-07-03T11:29:47.779Z,32.63
2023-07-03T11:30:47.816Z,32.57
2023-07-03T11:31:47.970Z,32.64
2023-07-03T11:32:47.783Z,32.57
2023-07-03T11:36:56.752Z,32.63
2023-07-03T11:39:47.721Z,32.64
2023-07-03T11:40:47.865Z,32.59
2023-07-03T11:43:47.701Z,32.51
2023-07-03T11:44:47.700Z,32.59
2023-07-03T11:45:47.734Z,32.46
2023-07-03T11:46:47.703Z,32.48
2023-07-03T11:47:47.701Z,32.46
2023-07-03T11:48:47.655Z,32.42
2023-07-03T11:49:47.685Z,32.38
2023-07-03T11:50:47.645Z,32.45
2023-07-03T11:51:47.628Z,32.38
2023-07-03T11:52:47.643Z,32.45
2023-07-03T11:53:47.652Z,32.45
2023-07-03T11:54:47.654Z,32.42
2023-07-03T11:55:47.775Z,32.43
2023-07-03T11:56:47.618Z,32.41
2023-07-03T11:57:50.285Z,32.49
2023-07-03T11:58:48.588Z,32.52
2023-07-03T11:59:47.566Z,32.49
2023-07-03T12:00:47.609Z,32.51
2023-07-03T12:01:47.574Z,32.51
2023-07-03T12:02:47.608Z,32.49
2023-07-03T12:03:47.603Z,32.52
2023-07-03T12:04:49.463Z,32.45
2023-07-03T12:05:47.761Z,32.53
2023-07-03T12:06:47.711Z,32.48
2023-07-03T12:07:47.772Z,32.49
2023-07-03T12:08:47.819Z,32.46
2023-07-03T12:09:47.896Z,32.53
2023-07-03T12:10:47.944Z,32.54
2023-07-03T12:11:48.003Z,32.51
2023-07-03T12:12:48.085Z,32.56
2023-07-03T12:13:48.131Z,32.51
2023-07-03T12:14:48.173Z,32.50
2023-07-03T12:15:48.412Z,32.56
2023-07-03T12:16:48.364Z,32.57
2023-07-03T12:17:48.394Z,32.62
2023-07-03T12:18:48.410Z,32.57
2023-07-03T12:19:48.469Z,32.57
2023-07-03T12:20:48.520Z,32.56
2023-07-03T12:21:48.598Z,32.54
2023-07-03T12:22:48.693Z,32.54
2023-07-03T12:23:49.565Z,32.56
2023-07-03T12:24:48.770Z,32.60
2023-07-03T12:25:49.033Z,32.53
2023-07-03T12:26:48.867Z,32.53
2023-07-03T12:27:48.990Z,32.53
2023-07-03T12:28:49.028Z,32.57
2023-07-03T12:29:49.074Z,32.57
2023-07-03T12:30:49.249Z,32.49
2023-07-03T12:31:49.212Z,32.52
2023-07-03T12:32:49.401Z,32.53
2023-07-03T12:33:49.318Z,32.46
2023-07-03T12:34:49.369Z,32.43
2023-07-03T12:35:49.674Z,32.45
2023-07-03T12:36:54.088Z,32.48
2023-07-03T12:37:50.443Z,32.44
2023-07-03T12:38:49.459Z,32.43
2023-07-03T12:39:49.421Z,32.41
2023-07-03T12:40:49.416Z,32.40
2023-07-03T12:41:49.433Z,32.37
2023-07-03T12:42:49.429Z,32.31
2023-07-03T12:43:56.591Z,32.40
2023-07-03T12:44:50.438Z,32.38
2023-07-03T12:45:49.552Z,32.31
2023-07-03T12:46:49.422Z,32.32
2023-07-03T12:47:49.405Z,32.34
2023-07-03T12:48:49.360Z,32.32
2023-07-03T12:49:49.368Z,32.29
2023-07-03T12:50:49.333Z,32.27
2023-07-03T12:51:49.672Z,32.29
2023-07-03T12:52:49.351Z,32.30
2023-07-03T12:53:49.322Z,32.24
2023-07-03T12:54:50.120Z,32.23
2023-07-03T12:55:49.495Z,32.25
2023-07-03T12:56:49.405Z,32.25
2023-07-03T12:57:49.483Z,32.28
2023-07-03T12:58:49.498Z,32.22
2023-07-03T12:59:49.538Z,32.19
2023-07-03T13:00:56.615Z,32.20
2023-07-03T13:01:49.635Z,32.23
2023-07-03T13:02:49.648Z,32.21
2023-07-03T13:03:49.584Z,32.19
2023-07-03T13:04:49.656Z,32.21
2023-07-03T13:05:49.840Z,32.12
2023-07-03T13:06:49.568Z,32.15
2023-07-03T13:07:49.574Z,32.10
2023-07-03T13:08:49.586Z,32.13
2023-07-03T13:09:49.578Z,32.15
2023-07-03T13:10:49.540Z,32.15
2023-07-03T13:11:49.547Z,32.11
2023-07-03T13:12:49.502Z,32.05
2023-07-03T13:13:49.562Z,32.11
2023-07-03T13:14:49.512Z,32.08
2023-07-03T13:15:49.771Z,32.07
2023-07-03T13:16:49.563Z,32.08
2023-07-03T13:17:49.517Z,32.03